Pagina principală
METAR-TAF:

METAR-TAF

Aeroporturi :

Broken Hill, Australia

Latitudine: 32-00-06S, longitudine: 141-28-18E, elevație: 292 m

Observații meteo curente

Raportul a fost făcut în urmă cu 56 de minute, la 09:00 UTC
Vânt 4 kt de la Nord
Temperatură 12°C
Umiditate 58%
Presiune 1020 hPa
Vizibilitate de 10 km sau mai mult

METAR: YBHI 260900Z AUTO 36004KT 9999 // NCD 12/04 Q1020

Ora: 19:26 (09:56 UTC)


TAF: lipsă

Observații și prognoze meteo pentru peste 4.000 de aeroporturi (rapoarte METAR și TAF).

Stațiile disponibile sunt reprezentate pe hartă prin puncte galbene și roșii.

Țineți indicatorul mouse-ului pe punctul dorit pentru a vedea denumirea stației.

Apoi, faceți clic pentru a vedea observațiile și prognozele meteorologice.

Pentru a schimba harta: Pentru mărire, faceți clic pe butoanele verzi cu cruce neagră; pentru micșorare, pe butonul verde cu o liniuță; pentru hărți învecinate, pe săgețile verzi.


METAR-TAF: